Assumption, IL

5:50 PM CDT on October 25, 2014 (GMT -0500)
Taylorville Municipal | Change Station
CLOSE
Current Station
Airport
Location: Taylorville,
Elevation: 623 ft
Nearby Weather Stations

Elev 623 ft 39.54 °N, 89.33 °W | Updated 15 minutes ago

Clear
Clear
73 °F
Feels Like 73 °F
N
5
Wind Variable Wind from WNW

Today
High -- | Low -- °F
--% Chance of Precip.
Yesterday
High -- | Low -- °F
Precip. -- in
7:16 AM 6:03 PM
Waxing Crescent, 4% visible
Pressure 30.00 in
Visibility 10.0 miles
Clouds Clear
Dew Point 46 °F
Humidity 38%
Rainfall 0.00 in
Snow Depth Not available.
UV 0 out of 12
Pollen 1.50 out of 12
Ozone Good
PM2.5 Moderate
Flu Activity No Activity
METAR KTAZ 252235Z AUTO 30004KT 10SM CLR 23/08 A3000 RMK AO2

More Conditions Fewer Conditions

Pressure 30.00 in
Visibility 10.0 miles
Clouds Clear
Dew Point 46 °F
Humidity 38%
Rainfall 0.00 in
Snow Depth Not available.
UV 0 out of 12
Pollen 1.50 out of 12
Ozone Good
PM2.5 Moderate
Flu Activity No Activity
METAR KTAZ 252235Z AUTO 30004KT 10SM CLR 23/08 A3000 RMK AO2

More Conditions Fewer Conditions

10-Day Weather Forecast

Almanac

Astronomy

Oct. 25, 2014 Rise Set
Actual Time 7:16 AM CDT 6:03 PM CDT
Civil Twilight 6:49 AM CDT 6:30 PM CDT
Nautical Twilight 6:17 AM CDT 7:02 PM CDT
Astronomical Twilight 5:46 AM CDT 7:33 PM CDT
Moon 8:55 AM CDT 7:26 PM CDT
Length of Visible Light 11h 41m
Length of Day
10h 46m
Tomorrow will be 2m 22s shorter.
Waxing Crescent, 4% of the Moon is Illuminated
Today
Waxing Crescent
Oct 30
First Quarter
Nov 6
Full
Nov 14
Last Quarter
Nov 22
New

Today's Extremes

State Highs State Lows

Community

WunderPhotos

Upload Photos

1,765,016 photos uploaded!

Nearby

Air Quality

  Air Quality AQ Index Pollutant
Yesterday Good
PM2.5
Yesterday Good
OZONE
Current Moderate
PM2.5
Current Good
OZONE
Saturday Good
PM2.5
Sunday Good
PM2.5
Monday Good
PM2.5
Tuesday Good
PM2.5
Wednesday Good
PM2.5

Snow Depth

Station Depth Elevation
No new snow has been reported.

Earthquake Activity

City Distance Mag. Time & Date
No recent earthquake activity has been reported nearby.
Minimum magnitude displayed is 2.5.

Coastal Water Temperatures

Place Temperature
No Stations Reporting

Nearby Weather Stations